ADDS METAR Data INFO
IDs: Format: Raw Decoded Include TAF

Data at: 0847 UTC 22 Jul 2018

ETSI 220820Z AUTO 36004KT //// // ////// 18/16 Q1014 ///